sensor_id;sensor_type;location;lat;lon;timestamp;P1;durP1;ratioP1;P2;durP2;ratioP2
48375;SDS011;34178;50.904;11.560;2022-09-09T00:01:57;8.30;;;2.00;;
48375;SDS011;34178;50.904;11.560;2022-09-09T00:04:35;8.48;;;2.72;;
48375;SDS011;34178;50.904;11.560;2022-09-09T00:07:10;7.57;;;2.22;;
48375;SDS011;34178;50.904;11.560;2022-09-09T00:10:03;3.30;;;1.83;;
48375;SDS011;34178;50.904;11.560;2022-09-09T00:15:19;5.32;;;2.00;;
48375;SDS011;34178;50.904;11.560;2022-09-09T00:21:25;10.45;;;1.98;;
48375;SDS011;34178;50.904;11.560;2022-09-09T00:23:28;5.07;;;2.30;;
48375;SDS011;34178;50.904;11.560;2022-09-09T00:31:47;7.65;;;2.15;;
48375;SDS011;34178;50.904;11.560;2022-09-09T00:34:14;7.45;;;2.35;;
48375;SDS011;34178;50.904;11.560;2022-09-09T00:39:23;9.25;;;2.42;;
48375;SDS011;34178;50.904;11.560;2022-09-09T00:44:46;5.30;;;2.10;;
48375;SDS011;34178;50.904;11.560;2022-09-09T00:47:29;2.85;;;1.67;;
48375;SDS011;34178;50.904;11.560;2022-09-09T00:55:28;6.60;;;2.42;;
48375;SDS011;34178;50.904;11.560;2022-09-09T00:58:17;6.45;;;2.50;;
48375;SDS011;34178;50.904;11.560;2022-09-09T01:00:44;4.82;;;2.10;;
48375;SDS011;34178;50.904;11.560;2022-09-09T01:03:35;4.32;;;2.10;;
48375;SDS011;34178;50.904;11.560;2022-09-09T01:08:59;6.97;;;2.78;;
48375;SDS011;34178;50.904;11.560;2022-09-09T01:11:43;8.55;;;1.95;;
48375;SDS011;34178;50.904;11.560;2022-09-09T01:22:17;4.47;;;2.30;;
48375;SDS011;34178;50.904;11.560;2022-09-09T01:27:48;6.40;;;2.30;;
48375;SDS011;34178;50.904;11.560;2022-09-09T01:30:16;9.95;;;2.88;;
48375;SDS011;34178;50.904;11.560;2022-09-09T01:32:50;9.60;;;2.42;;
48375;SDS011;34178;50.904;11.560;2022-09-09T01:37:54;8.90;;;2.40;;
48375;SDS011;34178;50.904;11.560;2022-09-09T01:40:19;7.68;;;2.22;;
48375;SDS011;34178;50.904;11.560;2022-09-09T01:42:45;4.00;;;2.17;;
48375;SDS011;34178;50.904;11.560;2022-09-09T01:45:10;6.70;;;2.65;;
48375;SDS011;34178;50.904;11.560;2022-09-09T01:47:36;8.30;;;2.78;;
48375;SDS011;34178;50.904;11.560;2022-09-09T01:50:02;6.95;;;2.83;;
48375;SDS011;34178;50.904;11.560;2022-09-09T01:52:28;8.68;;;2.50;;
48375;SDS011;34178;50.904;11.560;2022-09-09T01:54:55;9.00;;;2.25;;
48375;SDS011;34178;50.904;11.560;2022-09-09T01:57:25;11.48;;;3.42;;
48375;SDS011;34178;50.904;11.560;2022-09-09T02:00:05;8.95;;;3.38;;
48375;SDS011;34178;50.904;11.560;2022-09-09T02:08:03;9.35;;;2.60;;
48375;SDS011;34178;50.904;11.560;2022-09-09T02:10:44;7.90;;;2.35;;
48375;SDS011;34178;50.904;11.560;2022-09-09T02:13:16;5.28;;;2.25;;
48375;SDS011;34178;50.904;11.560;2022-09-09T02:15:52;6.90;;;2.67;;
48375;SDS011;34178;50.904;11.560;2022-09-09T02:18:27;10.40;;;2.55;;
48375;SDS011;34178;50.904;11.560;2022-09-09T02:20:59;10.55;;;2.70;;
48375;SDS011;34178;50.904;11.560;2022-09-09T02:23:27;5.35;;;2.15;;
48375;SDS011;34178;50.904;11.560;2022-09-09T02:25:54;6.20;;;2.63;;
48375;SDS011;34178;50.904;11.560;2022-09-09T02:28:23;6.80;;;2.63;;
48375;SDS011;34178;50.904;11.560;2022-09-09T02:30:52;6.32;;;2.40;;
48375;SDS011;34178;50.904;11.560;2022-09-09T02:33:20;6.95;;;2.63;;
48375;SDS011;34178;50.904;11.560;2022-09-09T02:35:52;7.85;;;2.53;;
48375;SDS011;34178;50.904;11.560;2022-09-09T02:38:18;8.48;;;2.58;;
48375;SDS011;34178;50.904;11.560;2022-09-09T02:40:46;5.95;;;2.60;;
48375;SDS011;34178;50.904;11.560;2022-09-09T02:43:13;4.50;;;2.33;;
48375;SDS011;34178;50.904;11.560;2022-09-09T02:45:42;9.05;;;3.13;;
48375;SDS011;34178;50.904;11.560;2022-09-09T02:48:20;5.90;;;2.30;;
48375;SDS011;34178;50.904;11.560;2022-09-09T02:51:06;8.48;;;2.60;;
48375;SDS011;34178;50.904;11.560;2022-09-09T02:53:43;4.45;;;2.15;;
48375;SDS011;34178;50.904;11.560;2022-09-09T02:56:16;7.25;;;3.67;;
48375;SDS011;34178;50.904;11.560;2022-09-09T02:58:45;6.90;;;2.63;;
48375;SDS011;34178;50.904;11.560;2022-09-09T03:01:11;7.65;;;2.60;;
48375;SDS011;34178;50.904;11.560;2022-09-09T03:03:37;8.57;;;3.25;;
48375;SDS011;34178;50.904;11.560;2022-09-09T03:06:03;6.57;;;2.58;;
48375;SDS011;34178;50.904;11.560;2022-09-09T03:08:30;9.02;;;2.35;;
48375;SDS011;34178;50.904;11.560;2022-09-09T03:10:58;5.47;;;2.65;;
48375;SDS011;34178;50.904;11.560;2022-09-09T03:13:26;7.67;;;2.60;;
48375;SDS011;34178;50.904;11.560;2022-09-09T03:15:52;6.25;;;2.70;;
48375;SDS011;34178;50.904;11.560;2022-09-09T03:18:17;6.85;;;2.65;;
48375;SDS011;34178;50.904;11.560;2022-09-09T03:20:43;6.60;;;2.50;;
48375;SDS011;34178;50.904;11.560;2022-09-09T03:23:08;6.30;;;2.28;;
48375;SDS011;34178;50.904;11.560;2022-09-09T03:25:34;6.85;;;2.60;;
48375;SDS011;34178;50.904;11.560;2022-09-09T03:28:00;6.15;;;2.40;;
48375;SDS011;34178;50.904;11.560;2022-09-09T03:30:27;7.07;;;2.35;;
48375;SDS011;34178;50.904;11.560;2022-09-09T03:32:53;6.40;;;2.40;;
48375;SDS011;34178;50.904;11.560;2022-09-09T03:35:20;5.40;;;2.30;;
48375;SDS011;34178;50.904;11.560;2022-09-09T03:37:46;4.72;;;2.05;;
48375;SDS011;34178;50.904;11.560;2022-09-09T03:40:12;6.78;;;2.55;;
48375;SDS011;34178;50.904;11.560;2022-09-09T03:42:38;6.63;;;2.40;;
48375;SDS011;34178;50.904;11.560;2022-09-09T03:45:05;5.38;;;2.17;;
48375;SDS011;34178;50.904;11.560;2022-09-09T03:47:34;5.45;;;2.00;;
48375;SDS011;34178;50.904;11.560;2022-09-09T03:49:59;8.43;;;2.10;;
48375;SDS011;34178;50.904;11.560;2022-09-09T03:52:25;7.22;;;2.55;;
48375;SDS011;34178;50.904;11.560;2022-09-09T03:54:51;9.98;;;3.00;;
48375;SDS011;34178;50.904;11.560;2022-09-09T03:57:18;6.05;;;2.60;;
48375;SDS011;34178;50.904;11.560;2022-09-09T03:59:44;8.65;;;2.75;;
48375;SDS011;34178;50.904;11.560;2022-09-09T04:02:09;6.10;;;2.45;;
48375;SDS011;34178;50.904;11.560;2022-09-09T04:04:35;8.63;;;2.20;;
48375;SDS011;34178;50.904;11.560;2022-09-09T04:07:01;5.70;;;2.10;;
48375;SDS011;34178;50.904;11.560;2022-09-09T04:09:27;6.97;;;2.25;;
48375;SDS011;34178;50.904;11.560;2022-09-09T04:11:53;11.75;;;2.70;;
48375;SDS011;34178;50.904;11.560;2022-09-09T04:14:19;7.47;;;2.42;;
48375;SDS011;34178;50.904;11.560;2022-09-09T04:16:45;5.03;;;2.33;;
48375;SDS011;34178;50.904;11.560;2022-09-09T04:19:11;8.57;;;2.28;;
48375;SDS011;34178;50.904;11.560;2022-09-09T04:21:38;8.98;;;2.15;;
48375;SDS011;34178;50.904;11.560;2022-09-09T04:24:05;6.95;;;2.22;;
48375;SDS011;34178;50.904;11.560;2022-09-09T04:26:32;6.75;;;2.60;;
48375;SDS011;34178;50.904;11.560;2022-09-09T04:28:58;5.38;;;2.38;;
48375;SDS011;34178;50.904;11.560;2022-09-09T04:31:24;5.43;;;2.60;;
48375;SDS011;34178;50.904;11.560;2022-09-09T04:33:50;5.35;;;2.90;;
48375;SDS011;34178;50.904;11.560;2022-09-09T04:36:16;13.02;;;2.45;;
48375;SDS011;34178;50.904;11.560;2022-09-09T04:38:43;5.32;;;2.22;;
48375;SDS011;34178;50.904;11.560;2022-09-09T04:41:09;4.75;;;2.03;;
48375;SDS011;34178;50.904;11.560;2022-09-09T04:43:36;6.75;;;2.90;;
48375;SDS011;34178;50.904;11.560;2022-09-09T04:46:02;8.45;;;2.53;;
48375;SDS011;34178;50.904;11.560;2022-09-09T04:48:28;10.25;;;2.47;;
48375;SDS011;34178;50.904;11.560;2022-09-09T04:50:57;5.53;;;2.00;;
48375;SDS011;34178;50.904;11.560;2022-09-09T04:53:24;8.35;;;2.80;;
48375;SDS011;34178;50.904;11.560;2022-09-09T04:55:51;5.75;;;2.60;;
48375;SDS011;34178;50.904;11.560;2022-09-09T04:58:26;6.57;;;2.50;;
48375;SDS011;34178;50.904;11.560;2022-09-09T05:00:52;7.47;;;2.38;;
48375;SDS011;34178;50.904;11.560;2022-09-09T05:03:17;8.45;;;2.25;;
48375;SDS011;34178;50.904;11.560;2022-09-09T05:05:44;6.35;;;2.33;;
48375;SDS011;34178;50.904;11.560;2022-09-09T05:08:09;5.32;;;2.50;;
48375;SDS011;34178;50.904;11.560;2022-09-09T05:10:36;6.22;;;2.40;;
48375;SDS011;34178;50.904;11.560;2022-09-09T05:13:03;7.05;;;2.28;;
48375;SDS011;34178;50.904;11.560;2022-09-09T05:15:29;6.63;;;2.42;;
48375;SDS011;34178;50.904;11.560;2022-09-09T05:17:59;9.35;;;2.67;;
48375;SDS011;34178;50.904;11.560;2022-09-09T05:20:25;5.25;;;2.25;;
48375;SDS011;34178;50.904;11.560;2022-09-09T05:22:55;5.78;;;2.20;;
48375;SDS011;34178;50.904;11.560;2022-09-09T05:25:22;5.80;;;2.47;;
48375;SDS011;34178;50.904;11.560;2022-09-09T05:27:50;9.15;;;2.35;;
48375;SDS011;34178;50.904;11.560;2022-09-09T05:30:17;8.20;;;2.30;;
48375;SDS011;34178;50.904;11.560;2022-09-09T05:32:43;6.88;;;2.30;;
48375;SDS011;34178;50.904;11.560;2022-09-09T05:35:09;6.65;;;2.78;;
48375;SDS011;34178;50.904;11.560;2022-09-09T05:37:35;6.43;;;2.38;;
48375;SDS011;34178;50.904;11.560;2022-09-09T05:40:00;6.55;;;2.45;;
48375;SDS011;34178;50.904;11.560;2022-09-09T05:42:29;7.05;;;2.28;;
48375;SDS011;34178;50.904;11.560;2022-09-09T05:44:55;8.20;;;2.42;;
48375;SDS011;34178;50.904;11.560;2022-09-09T05:47:21;7.65;;;2.70;;
48375;SDS011;34178;50.904;11.560;2022-09-09T05:49:47;6.63;;;2.33;;
48375;SDS011;34178;50.904;11.560;2022-09-09T05:52:13;8.20;;;2.20;;
48375;SDS011;34178;50.904;11.560;2022-09-09T05:54:38;6.78;;;2.50;;
48375;SDS011;34178;50.904;11.560;2022-09-09T05:57:05;9.30;;;2.67;;
48375;SDS011;34178;50.904;11.560;2022-09-09T05:59:30;6.97;;;2.30;;
48375;SDS011;34178;50.904;11.560;2022-09-09T06:01:57;6.22;;;2.05;;
48375;SDS011;34178;50.904;11.560;2022-09-09T06:04:22;6.82;;;2.30;;
48375;SDS011;34178;50.904;11.560;2022-09-09T06:06:49;3.80;;;1.90;;
48375;SDS011;34178;50.904;11.560;2022-09-09T06:09:15;7.25;;;2.60;;
48375;SDS011;34178;50.904;11.560;2022-09-09T06:11:41;8.80;;;2.63;;
48375;SDS011;34178;50.904;11.560;2022-09-09T06:14:07;11.38;;;2.75;;
48375;SDS011;34178;50.904;11.560;2022-09-09T06:16:33;3.95;;;1.98;;
48375;SDS011;34178;50.904;11.560;2022-09-09T06:18:59;6.55;;;2.35;;
48375;SDS011;34178;50.904;11.560;2022-09-09T06:21:28;6.13;;;2.65;;
48375;SDS011;34178;50.904;11.560;2022-09-09T06:23:56;10.45;;;2.90;;
48375;SDS011;34178;50.904;11.560;2022-09-09T06:28:58;6.75;;;2.00;;
48375;SDS011;34178;50.904;11.560;2022-09-09T06:31:26;4.53;;;1.90;;
48375;SDS011;34178;50.904;11.560;2022-09-09T06:33:55;7.10;;;2.13;;
48375;SDS011;34178;50.904;11.560;2022-09-09T06:36:26;8.32;;;3.20;;
48375;SDS011;34178;50.904;11.560;2022-09-09T06:39:02;5.85;;;2.22;;
48375;SDS011;34178;50.904;11.560;2022-09-09T06:41:29;6.88;;;2.35;;
48375;SDS011;34178;50.904;11.560;2022-09-09T06:43:55;6.47;;;2.50;;
48375;SDS011;34178;50.904;11.560;2022-09-09T06:46:22;8.00;;;2.50;;
48375;SDS011;34178;50.904;11.560;2022-09-09T06:48:53;9.15;;;2.60;;
48375;SDS011;34178;50.904;11.560;2022-09-09T06:51:22;5.87;;;2.67;;
48375;SDS011;34178;50.904;11.560;2022-09-09T06:53:51;8.18;;;3.25;;
48375;SDS011;34178;50.904;11.560;2022-09-09T06:58:53;6.03;;;2.50;;
48375;SDS011;34178;50.904;11.560;2022-09-09T07:01:20;4.90;;;2.28;;
48375;SDS011;34178;50.904;11.560;2022-09-09T07:03:51;9.95;;;3.15;;
48375;SDS011;34178;50.904;11.560;2022-09-09T07:06:22;7.30;;;2.58;;
48375;SDS011;34178;50.904;11.560;2022-09-09T07:11:24;8.18;;;2.63;;
48375;SDS011;34178;50.904;11.560;2022-09-09T07:13:52;7.28;;;2.45;;
48375;SDS011;34178;50.904;11.560;2022-09-09T07:16:18;4.95;;;2.40;;
48375;SDS011;34178;50.904;11.560;2022-09-09T07:18:45;10.65;;;2.75;;
48375;SDS011;34178;50.904;11.560;2022-09-09T07:21:12;6.90;;;2.42;;
48375;SDS011;34178;50.904;11.560;2022-09-09T07:23:39;8.95;;;2.67;;
48375;SDS011;34178;50.904;11.560;2022-09-09T07:28:38;4.82;;;2.00;;
48375;SDS011;34178;50.904;11.560;2022-09-09T07:31:05;7.68;;;2.55;;
48375;SDS011;34178;50.904;11.560;2022-09-09T07:33:33;8.18;;;2.40;;
48375;SDS011;34178;50.904;11.560;2022-09-09T07:36:10;7.35;;;2.75;;
48375;SDS011;34178;50.904;11.560;2022-09-09T07:38:42;6.68;;;2.72;;
48375;SDS011;34178;50.904;11.560;2022-09-09T07:41:11;8.65;;;2.80;;
48375;SDS011;34178;50.904;11.560;2022-09-09T07:43:42;6.70;;;2.00;;
48375;SDS011;34178;50.904;11.560;2022-09-09T07:46:10;6.95;;;2.15;;
48375;SDS011;34178;50.904;11.560;2022-09-09T07:48:37;7.13;;;2.15;;
48375;SDS011;34178;50.904;11.560;2022-09-09T07:51:07;7.15;;;2.05;;
48375;SDS011;34178;50.904;11.560;2022-09-09T07:53:36;6.75;;;2.20;;
48375;SDS011;34178;50.904;11.560;2022-09-09T07:56:06;7.82;;;3.03;;
48375;SDS011;34178;50.904;11.560;2022-09-09T07:58:34;7.85;;;2.50;;
48375;SDS011;34178;50.904;11.560;2022-09-09T08:01:06;7.05;;;2.63;;
48375;SDS011;34178;50.904;11.560;2022-09-09T08:03:33;7.15;;;2.10;;
48375;SDS011;34178;50.904;11.560;2022-09-09T08:06:05;9.77;;;1.92;;
48375;SDS011;34178;50.904;11.560;2022-09-09T08:08:33;6.35;;;2.10;;
48375;SDS011;34178;50.904;11.560;2022-09-09T08:11:17;7.43;;;2.60;;
48375;SDS011;34178;50.904;11.560;2022-09-09T08:13:43;10.18;;;2.50;;
48375;SDS011;34178;50.904;11.560;2022-09-09T08:18:37;8.02;;;2.20;;
48375;SDS011;34178;50.904;11.560;2022-09-09T08:21:08;4.75;;;1.90;;
48375;SDS011;34178;50.904;11.560;2022-09-09T08:23:39;6.93;;;2.50;;
48375;SDS011;34178;50.904;11.560;2022-09-09T08:26:10;5.05;;;2.03;;
48375;SDS011;34178;50.904;11.560;2022-09-09T08:28:36;8.80;;;1.70;;
48375;SDS011;34178;50.904;11.560;2022-09-09T08:31:15;10.15;;;2.05;;
48375;SDS011;34178;50.904;11.560;2022-09-09T08:33:42;6.20;;;2.10;;
48375;SDS011;34178;50.904;11.560;2022-09-09T08:36:11;9.57;;;2.15;;
48375;SDS011;34178;50.904;11.560;2022-09-09T08:38:46;6.20;;;1.90;;
48375;SDS011;34178;50.904;11.560;2022-09-09T08:43:50;5.32;;;1.65;;
48375;SDS011;34178;50.904;11.560;2022-09-09T08:46:46;4.43;;;1.63;;
48375;SDS011;34178;50.904;11.560;2022-09-09T08:55:02;5.30;;;1.40;;
48375;SDS011;34178;50.904;11.560;2022-09-09T08:57:50;5.03;;;1.55;;
48375;SDS011;34178;50.904;11.560;2022-09-09T09:00:19;10.07;;;2.25;;
48375;SDS011;34178;50.904;11.560;2022-09-09T09:02:57;4.55;;;1.33;;
48375;SDS011;34178;50.904;11.560;2022-09-09T09:13:19;4.57;;;1.25;;
48375;SDS011;34178;50.904;11.560;2022-09-09T09:15:50;6.40;;;1.50;;
48375;SDS011;34178;50.904;11.560;2022-09-09T09:18:25;5.15;;;1.45;;
48375;SDS011;34178;50.904;11.560;2022-09-09T09:21:00;5.78;;;1.40;;
48375;SDS011;34178;50.904;11.560;2022-09-09T09:23:59;4.47;;;1.10;;
48375;SDS011;34178;50.904;11.560;2022-09-09T09:26:29;11.88;;;1.50;;
48375;SDS011;34178;50.904;11.560;2022-09-09T09:29:03;8.57;;;1.58;;
48375;SDS011;34178;50.904;11.560;2022-09-09T09:31:37;6.80;;;1.33;;
48375;SDS011;34178;50.904;11.560;2022-09-09T09:34:02;5.70;;;1.00;;
48375;SDS011;34178;50.904;11.560;2022-09-09T09:36:33;5.43;;;1.30;;
48375;SDS011;34178;50.904;11.560;2022-09-09T09:39:03;3.60;;;0.98;;
48375;SDS011;34178;50.904;11.560;2022-09-09T09:41:34;3.13;;;0.88;;
48375;SDS011;34178;50.904;11.560;2022-09-09T09:44:05;5.32;;;1.58;;
48375;SDS011;34178;50.904;11.560;2022-09-09T09:46:46;7.82;;;1.48;;
48375;SDS011;34178;50.904;11.560;2022-09-09T09:49:11;4.18;;;1.30;;
48375;SDS011;34178;50.904;11.560;2022-09-09T09:51:38;6.18;;;1.10;;
48375;SDS011;34178;50.904;11.560;2022-09-09T09:56:34;5.45;;;1.35;;
48375;SDS011;34178;50.904;11.560;2022-09-09T09:59:00;7.22;;;1.27;;
48375;SDS011;34178;50.904;11.560;2022-09-09T10:01:27;7.60;;;1.70;;
48375;SDS011;34178;50.904;11.560;2022-09-09T10:03:58;6.93;;;1.23;;
48375;SDS011;34178;50.904;11.560;2022-09-09T10:06:34;4.43;;;0.93;;
48375;SDS011;34178;50.904;11.560;2022-09-09T10:09:02;7.38;;;1.38;;
48375;SDS011;34178;50.904;11.560;2022-09-09T10:14:21;12.55;;;1.52;;
48375;SDS011;34178;50.904;11.560;2022-09-09T10:19:56;5.72;;;0.98;;
48375;SDS011;34178;50.904;11.560;2022-09-09T10:22:27;5.03;;;1.00;;
48375;SDS011;34178;50.904;11.560;2022-09-09T10:30:16;4.03;;;1.15;;
48375;SDS011;34178;50.904;11.560;2022-09-09T10:40:58;9.88;;;1.38;;
48375;SDS011;34178;50.904;11.560;2022-09-09T10:51:36;5.10;;;1.23;;
48375;SDS011;34178;50.904;11.560;2022-09-09T10:54:22;4.90;;;0.80;;
48375;SDS011;34178;50.904;11.560;2022-09-09T10:56:55;6.05;;;1.10;;
48375;SDS011;34178;50.904;11.560;2022-09-09T10:59:26;3.17;;;0.95;;
48375;SDS011;34178;50.904;11.560;2022-09-09T11:10:38;4.28;;;1.20;;
48375;SDS011;34178;50.904;11.560;2022-09-09T11:13:39;5.75;;;1.10;;
48375;SDS011;34178;50.904;11.560;2022-09-09T11:16:30;3.67;;;0.95;;
48375;SDS011;34178;50.904;11.560;2022-09-09T11:21:55;5.35;;;1.13;;
48375;SDS011;34178;50.904;11.560;2022-09-09T11:27:16;4.25;;;0.88;;
48375;SDS011;34178;50.904;11.560;2022-09-09T11:35:30;4.13;;;1.08;;
48375;SDS011;34178;50.904;11.560;2022-09-09T11:38:31;5.70;;;1.00;;
48375;SDS011;34178;50.904;11.560;2022-09-09T11:41:02;3.60;;;0.82;;
48375;SDS011;34178;50.904;11.560;2022-09-09T11:43:41;6.72;;;1.00;;
48375;SDS011;34178;50.904;11.560;2022-09-09T11:46:12;3.17;;;0.60;;
48375;SDS011;34178;50.904;11.560;2022-09-09T11:48:43;4.88;;;1.00;;
48375;SDS011;34178;50.904;11.560;2022-09-09T11:51:25;7.88;;;1.30;;
48375;SDS011;34178;50.904;11.560;2022-09-09T11:53:54;5.85;;;0.98;;
48375;SDS011;34178;50.904;11.560;2022-09-09T11:56:30;3.28;;;0.98;;
48375;SDS011;34178;50.904;11.560;2022-09-09T11:59:03;5.53;;;1.05;;
48375;SDS011;34178;50.904;11.560;2022-09-09T12:01:34;5.68;;;0.95;;
48375;SDS011;34178;50.904;11.560;2022-09-09T12:06:43;6.03;;;0.82;;
48375;SDS011;34178;50.904;11.560;2022-09-09T12:09:16;5.97;;;0.63;;
48375;SDS011;34178;50.904;11.560;2022-09-09T12:11:52;3.17;;;0.60;;
48375;SDS011;34178;50.904;11.560;2022-09-09T12:14:37;3.85;;;0.50;;
48375;SDS011;34178;50.904;11.560;2022-09-09T12:17:21;12.23;;;0.93;;
48375;SDS011;34178;50.904;11.560;2022-09-09T12:19:48;2.00;;;0.40;;
48375;SDS011;34178;50.904;11.560;2022-09-09T12:23:17;3.80;;;0.40;;
48375;SDS011;34178;50.904;11.560;2022-09-09T12:28:44;4.85;;;1.00;;
48375;SDS011;34178;50.904;11.560;2022-09-09T12:31:26;2.58;;;0.40;;
48375;SDS011;34178;50.904;11.560;2022-09-09T12:34:02;3.05;;;0.70;;
48375;SDS011;34178;50.904;11.560;2022-09-09T12:36:34;4.43;;;0.73;;
48375;SDS011;34178;50.904;11.560;2022-09-09T12:39:09;3.88;;;0.50;;
48375;SDS011;34178;50.904;11.560;2022-09-09T12:41:50;1.80;;;0.60;;
48375;SDS011;34178;50.904;11.560;2022-09-09T12:44:22;6.38;;;0.65;;
48375;SDS011;34178;50.904;11.560;2022-09-09T12:46:49;2.92;;;0.70;;
48375;SDS011;34178;50.904;11.560;2022-09-09T12:49:35;3.55;;;0.70;;
48375;SDS011;34178;50.904;11.560;2022-09-09T12:52:06;4.65;;;0.80;;
48375;SDS011;34178;50.904;11.560;2022-09-09T12:54:38;5.22;;;0.93;;
48375;SDS011;34178;50.904;11.560;2022-09-09T12:57:12;2.72;;;0.57;;
48375;SDS011;34178;50.904;11.560;2022-09-09T12:59:39;6.72;;;0.73;;
48375;SDS011;34178;50.904;11.560;2022-09-09T13:02:20;5.70;;;1.10;;
48375;SDS011;34178;50.904;11.560;2022-09-09T13:04:48;4.18;;;0.80;;
48375;SDS011;34178;50.904;11.560;2022-09-09T13:07:15;6.07;;;0.75;;
48375;SDS011;34178;50.904;11.560;2022-09-09T13:09:45;4.20;;;0.73;;
48375;SDS011;34178;50.904;11.560;2022-09-09T13:12:16;4.63;;;0.90;;
48375;SDS011;34178;50.904;11.560;2022-09-09T13:14:45;5.32;;;0.90;;
48375;SDS011;34178;50.904;11.560;2022-09-09T13:20:16;5.20;;;0.80;;
48375;SDS011;34178;50.904;11.560;2022-09-09T13:22:42;5.88;;;1.05;;
48375;SDS011;34178;50.904;11.560;2022-09-09T13:27:36;1.98;;;0.43;;
48375;SDS011;34178;50.904;11.560;2022-09-09T13:33:06;3.00;;;0.70;;
48375;SDS011;34178;50.904;11.560;2022-09-09T13:35:57;2.35;;;0.50;;
48375;SDS011;34178;50.904;11.560;2022-09-09T13:38:32;2.75;;;0.52;;
48375;SDS011;34178;50.904;11.560;2022-09-09T13:41:05;4.47;;;0.80;;
48375;SDS011;34178;50.904;11.560;2022-09-09T13:43:36;6.15;;;0.85;;
48375;SDS011;34178;50.904;11.560;2022-09-09T13:51:46;3.00;;;0.68;;
48375;SDS011;34178;50.904;11.560;2022-09-09T13:54:14;3.97;;;1.10;;
48375;SDS011;34178;50.904;11.560;2022-09-09T13:56:42;7.47;;;1.00;;
48375;SDS011;34178;50.904;11.560;2022-09-09T13:59:12;3.30;;;0.80;;
48375;SDS011;34178;50.904;11.560;2022-09-09T14:01:40;6.07;;;1.33;;
48375;SDS011;34178;50.904;11.560;2022-09-09T14:04:06;5.03;;;1.30;;
48375;SDS011;34178;50.904;11.560;2022-09-09T14:06:32;5.53;;;1.10;;
48375;SDS011;34178;50.904;11.560;2022-09-09T14:09:00;4.30;;;0.80;;
48375;SDS011;34178;50.904;11.560;2022-09-09T14:11:25;4.82;;;0.93;;
48375;SDS011;34178;50.904;11.560;2022-09-09T14:13:51;2.72;;;0.65;;
48375;SDS011;34178;50.904;11.560;2022-09-09T14:16:17;2.78;;;0.60;;
48375;SDS011;34178;50.904;11.560;2022-09-09T14:18:43;2.58;;;0.40;;
48375;SDS011;34178;50.904;11.560;2022-09-09T14:21:10;3.65;;;0.85;;
48375;SDS011;34178;50.904;11.560;2022-09-09T14:23:36;2.03;;;0.50;;
48375;SDS011;34178;50.904;11.560;2022-09-09T14:26:03;5.45;;;0.77;;
48375;SDS011;34178;50.904;11.560;2022-09-09T14:28:29;2.05;;;0.55;;
48375;SDS011;34178;50.904;11.560;2022-09-09T14:30:58;2.83;;;0.63;;
48375;SDS011;34178;50.904;11.560;2022-09-09T14:33:25;3.63;;;0.70;;
48375;SDS011;34178;50.904;11.560;2022-09-09T14:35:56;2.67;;;0.40;;
48375;SDS011;34178;50.904;11.560;2022-09-09T14:38:23;2.15;;;0.50;;
48375;SDS011;34178;50.904;11.560;2022-09-09T14:40:49;1.42;;;0.43;;
48375;SDS011;34178;50.904;11.560;2022-09-09T14:43:15;3.55;;;0.52;;
48375;SDS011;34178;50.904;11.560;2022-09-09T14:45:40;2.38;;;0.63;;
48375;SDS011;34178;50.904;11.560;2022-09-09T14:48:06;3.35;;;0.57;;
48375;SDS011;34178;50.904;11.560;2022-09-09T14:50:32;4.63;;;0.50;;
48375;SDS011;34178;50.904;11.560;2022-09-09T14:52:59;3.58;;;0.50;;
48375;SDS011;34178;50.904;11.560;2022-09-09T14:55:25;3.83;;;0.50;;
48375;SDS011;34178;50.904;11.560;2022-09-09T14:57:53;1.80;;;0.50;;
48375;SDS011;34178;50.904;11.560;2022-09-09T15:00:19;3.08;;;0.70;;
48375;SDS011;34178;50.904;11.560;2022-09-09T15:02:47;1.98;;;0.47;;
48375;SDS011;34178;50.904;11.560;2022-09-09T15:05:13;3.95;;;0.50;;
48375;SDS011;34178;50.904;11.560;2022-09-09T15:07:40;2.00;;;0.63;;
48375;SDS011;34178;50.904;11.560;2022-09-09T15:10:05;4.13;;;0.80;;
48375;SDS011;34178;50.904;11.560;2022-09-09T15:12:31;4.40;;;0.80;;
48375;SDS011;34178;50.904;11.560;2022-09-09T15:14:58;10.00;;;3.28;;
48375;SDS011;34178;50.904;11.560;2022-09-09T15:17:23;5.10;;;0.57;;
48375;SDS011;34178;50.904;11.560;2022-09-09T15:19:50;23.23;;;8.48;;
48375;SDS011;34178;50.904;11.560;2022-09-09T15:22:16;2.92;;;0.75;;
48375;SDS011;34178;50.904;11.560;2022-09-09T15:24:41;14.57;;;5.68;;
48375;SDS011;34178;50.904;11.560;2022-09-09T15:27:07;17.48;;;7.50;;
48375;SDS011;34178;50.904;11.560;2022-09-09T15:29:33;3.05;;;0.80;;
48375;SDS011;34178;50.904;11.560;2022-09-09T15:31:58;6.00;;;1.60;;
48375;SDS011;34178;50.904;11.560;2022-09-09T15:34:24;1.95;;;0.50;;
48375;SDS011;34178;50.904;11.560;2022-09-09T15:36:50;4.00;;;0.98;;
48375;SDS011;34178;50.904;11.560;2022-09-09T15:39:16;1.90;;;0.60;;
48375;SDS011;34178;50.904;11.560;2022-09-09T15:41:43;2.88;;;0.70;;
48375;SDS011;34178;50.904;11.560;2022-09-09T15:44:10;2.78;;;0.55;;
48375;SDS011;34178;50.904;11.560;2022-09-09T15:46:46;3.35;;;0.90;;
48375;SDS011;34178;50.904;11.560;2022-09-09T15:49:15;2.88;;;0.75;;
48375;SDS011;34178;50.904;11.560;2022-09-09T15:51:50;2.40;;;0.60;;
48375;SDS011;34178;50.904;11.560;2022-09-09T15:54:18;4.03;;;0.77;;
48375;SDS011;34178;50.904;11.560;2022-09-09T15:56:47;2.85;;;0.68;;
48375;SDS011;34178;50.904;11.560;2022-09-09T15:59:20;3.65;;;0.80;;
48375;SDS011;34178;50.904;11.560;2022-09-09T16:01:49;3.25;;;0.50;;
48375;SDS011;34178;50.904;11.560;2022-09-09T16:04:18;1.40;;;0.50;;
48375;SDS011;34178;50.904;11.560;2022-09-09T16:09:15;1.60;;;0.50;;
48375;SDS011;34178;50.904;11.560;2022-09-09T16:11:40;3.53;;;0.70;;
48375;SDS011;34178;50.904;11.560;2022-09-09T16:14:06;1.45;;;0.57;;
48375;SDS011;34178;50.904;11.560;2022-09-09T16:16:32;3.65;;;0.63;;
48375;SDS011;34178;50.904;11.560;2022-09-09T16:19:00;3.75;;;0.88;;
48375;SDS011;34178;50.904;11.560;2022-09-09T16:21:30;3.92;;;0.60;;
48375;SDS011;34178;50.904;11.560;2022-09-09T16:24:00;1.92;;;0.30;;
48375;SDS011;34178;50.904;11.560;2022-09-09T16:26:27;2.47;;;0.70;;
48375;SDS011;34178;50.904;11.560;2022-09-09T16:28:55;1.70;;;0.43;;
48375;SDS011;34178;50.904;11.560;2022-09-09T16:31:22;4.05;;;0.60;;
48375;SDS011;34178;50.904;11.560;2022-09-09T16:33:49;2.33;;;0.55;;
48375;SDS011;34178;50.904;11.560;2022-09-09T16:36:16;2.25;;;0.43;;
48375;SDS011;34178;50.904;11.560;2022-09-09T16:38:44;3.03;;;0.68;;
48375;SDS011;34178;50.904;11.560;2022-09-09T16:41:10;2.10;;;0.40;;
48375;SDS011;34178;50.904;11.560;2022-09-09T16:43:38;7.03;;;0.82;;
48375;SDS011;34178;50.904;11.560;2022-09-09T16:46:15;3.03;;;0.43;;
48375;SDS011;34178;50.904;11.560;2022-09-09T16:48:43;2.50;;;0.57;;
48375;SDS011;34178;50.904;11.560;2022-09-09T16:51:14;5.43;;;0.60;;
48375;SDS011;34178;50.904;11.560;2022-09-09T16:53:39;4.68;;;0.70;;
48375;SDS011;34178;50.904;11.560;2022-09-09T16:56:08;2.65;;;0.70;;
48375;SDS011;34178;50.904;11.560;2022-09-09T16:58:34;1.88;;;0.50;;
48375;SDS011;34178;50.904;11.560;2022-09-09T17:01:01;4.60;;;0.68;;
48375;SDS011;34178;50.904;11.560;2022-09-09T17:03:28;4.90;;;0.70;;
48375;SDS011;34178;50.904;11.560;2022-09-09T17:05:54;8.75;;;2.05;;
48375;SDS011;34178;50.904;11.560;2022-09-09T17:08:20;7.32;;;2.22;;
48375;SDS011;34178;50.904;11.560;2022-09-09T17:10:45;14.65;;;6.70;;
48375;SDS011;34178;50.904;11.560;2022-09-09T17:13:12;6.80;;;2.90;;
48375;SDS011;34178;50.904;11.560;2022-09-09T17:15:39;5.07;;;1.17;;